sensor_id;sensor_type;location;lat;lon;timestamp;temperature;humidity
51305;HTU21D;37392;50.964;6.952;2022-12-20T00:01:25;11.58;94.36
51305;HTU21D;37392;50.964;6.952;2022-12-20T00:03:53;11.56;94.30
51305;HTU21D;37392;50.964;6.952;2022-12-20T00:06:20;11.59;93.99
51305;HTU21D;37392;50.964;6.952;2022-12-20T00:08:54;11.60;94.04
51305;HTU21D;37392;50.964;6.952;2022-12-20T00:11:21;11.64;93.81
51305;HTU21D;37392;50.964;6.952;2022-12-20T00:13:48;11.66;93.87
51305;HTU21D;37392;50.964;6.952;2022-12-20T00:16:16;11.72;93.68
51305;HTU21D;37392;50.964;6.952;2022-12-20T00:18:43;11.73;93.56
51305;HTU21D;37392;50.964;6.952;2022-12-20T00:21:11;11.71;93.55
51305;HTU21D;37392;50.964;6.952;2022-12-20T00:23:38;11.70;93.73
51305;HTU21D;37392;50.964;6.952;2022-12-20T00:26:06;11.73;93.78
51305;HTU21D;37392;50.964;6.952;2022-12-20T00:28:35;11.73;94.85
51305;HTU21D;37392;50.964;6.952;2022-12-20T00:31:02;11.70;98.29
51305;HTU21D;37392;50.964;6.952;2022-12-20T00:33:28;11.58;100.03
51305;HTU21D;37392;50.964;6.952;2022-12-20T00:35:55;11.44;101.63
51305;HTU21D;37392;50.964;6.952;2022-12-20T00:38:24;11.30;104.38
51305;HTU21D;37392;50.964;6.952;2022-12-20T00:41:05;11.10;106.92
51305;HTU21D;37392;50.964;6.952;2022-12-20T00:43:33;10.93;107.74
51305;HTU21D;37392;50.964;6.952;2022-12-20T00:45:59;10.79;108.43
51305;HTU21D;37392;50.964;6.952;2022-12-20T00:48:26;10.74;107.97
51305;HTU21D;37392;50.964;6.952;2022-12-20T00:51:00;10.74;108.52
51305;HTU21D;37392;50.964;6.952;2022-12-20T00:53:28;10.73;107.56
51305;HTU21D;37392;50.964;6.952;2022-12-20T00:55:54;10.68;108.05
51305;HTU21D;37392;50.964;6.952;2022-12-20T00:58:19;10.64;107.88
51305;HTU21D;37392;50.964;6.952;2022-12-20T01:00:46;10.53;108.82
51305;HTU21D;37392;50.964;6.952;2022-12-20T01:03:11;10.58;108.35
51305;HTU21D;37392;50.964;6.952;2022-12-20T01:05:37;10.53;108.46
51305;HTU21D;37392;50.964;6.952;2022-12-20T01:08:11;10.51;108.40
51305;HTU21D;37392;50.964;6.952;2022-12-20T01:10:37;10.51;108.52
51305;HTU21D;37392;50.964;6.952;2022-12-20T01:13:02;10.50;108.75
51305;HTU21D;37392;50.964;6.952;2022-12-20T01:15:28;10.50;108.35
51305;HTU21D;37392;50.964;6.952;2022-12-20T01:17:53;10.53;108.42
51305;HTU21D;37392;50.964;6.952;2022-12-20T01:20:19;10.55;107.78
51305;HTU21D;37392;50.964;6.952;2022-12-20T01:22:44;10.51;107.72
51305;HTU21D;37392;50.964;6.952;2022-12-20T01:25:10;10.58;107.20
51305;HTU21D;37392;50.964;6.952;2022-12-20T01:27:35;10.54;107.76
51305;HTU21D;37392;50.964;6.952;2022-12-20T01:30:01;10.57;106.68
51305;HTU21D;37392;50.964;6.952;2022-12-20T01:32:27;10.56;107.08
51305;HTU21D;37392;50.964;6.952;2022-12-20T01:34:53;10.57;107.17
51305;HTU21D;37392;50.964;6.952;2022-12-20T01:37:18;10.56;107.07
51305;HTU21D;37392;50.964;6.952;2022-12-20T01:39:44;10.53;106.66
51305;HTU21D;37392;50.964;6.952;2022-12-20T01:42:13;10.58;106.69
51305;HTU21D;37392;50.964;6.952;2022-12-20T01:47:08;10.72;105.47
51305;HTU21D;37392;50.964;6.952;2022-12-20T01:49:41;10.74;105.29
51305;HTU21D;37392;50.964;6.952;2022-12-20T01:52:16;10.81;104.74
51305;HTU21D;37392;50.964;6.952;2022-12-20T01:55:12;10.93;103.48
51305;HTU21D;37392;50.964;6.952;2022-12-20T01:57:56;10.93;103.08
51305;HTU21D;37392;50.964;6.952;2022-12-20T02:00:24;10.95;103.24
51305;HTU21D;37392;50.964;6.952;2022-12-20T02:02:50;10.98;103.13
51305;HTU21D;37392;50.964;6.952;2022-12-20T02:05:18;10.98;102.79
51305;HTU21D;37392;50.964;6.952;2022-12-20T02:07:47;10.97;102.92
51305;HTU21D;37392;50.964;6.952;2022-12-20T02:10:15;10.94;103.02
51305;HTU21D;37392;50.964;6.952;2022-12-20T02:12:46;10.95;103.52
51305;HTU21D;37392;50.964;6.952;2022-12-20T02:15:53;10.88;103.59
51305;HTU21D;37392;50.964;6.952;2022-12-20T02:18:42;10.73;105.63
51305;HTU21D;37392;50.964;6.952;2022-12-20T02:29:36;10.04;111.24
51305;HTU21D;37392;50.964;6.952;2022-12-20T02:32:13;9.94;111.66
51305;HTU21D;37392;50.964;6.952;2022-12-20T02:34:49;9.85;112.55
51305;HTU21D;37392;50.964;6.952;2022-12-20T02:37:15;9.83;112.68
51305;HTU21D;37392;50.964;6.952;2022-12-20T02:39:41;9.79;112.91
51305;HTU21D;37392;50.964;6.952;2022-12-20T02:42:13;9.72;113.35
51305;HTU21D;37392;50.964;6.952;2022-12-20T02:44:47;9.59;114.15
51305;HTU21D;37392;50.964;6.952;2022-12-20T02:47:55;9.46;114.70
51305;HTU21D;37392;50.964;6.952;2022-12-20T02:50:51;9.34;115.59
51305;HTU21D;37392;50.964;6.952;2022-12-20T02:53:19;9.27;115.74
51305;HTU21D;37392;50.964;6.952;2022-12-20T02:55:52;9.23;116.07
51305;HTU21D;37392;50.964;6.952;2022-12-20T02:58:33;9.15;116.85
51305;HTU21D;37392;50.964;6.952;2022-12-20T03:01:06;9.10;117.55
51305;HTU21D;37392;50.964;6.952;2022-12-20T03:03:35;9.09;117.66
51305;HTU21D;37392;50.964;6.952;2022-12-20T03:06:01;9.02;118.22
51305;HTU21D;37392;50.964;6.952;2022-12-20T03:08:30;9.05;118.31
51305;HTU21D;37392;50.964;6.952;2022-12-20T03:10:56;9.05;117.60
51305;HTU21D;37392;50.964;6.952;2022-12-20T03:13:23;9.04;117.95
51305;HTU21D;37392;50.964;6.952;2022-12-20T03:15:50;9.01;118.50
51305;HTU21D;37392;50.964;6.952;2022-12-20T03:18:16;9.02;118.22
51305;HTU21D;37392;50.964;6.952;2022-12-20T03:20:42;9.04;117.99
51305;HTU21D;37392;50.964;6.952;2022-12-20T03:23:07;9.06;117.43
51305;HTU21D;37392;50.964;6.952;2022-12-20T03:25:33;9.04;117.79
51305;HTU21D;37392;50.964;6.952;2022-12-20T03:27:59;9.07;117.89
51305;HTU21D;37392;50.964;6.952;2022-12-20T03:30:24;9.05;117.98
51305;HTU21D;37392;50.964;6.952;2022-12-20T03:32:50;9.07;117.89
51305;HTU21D;37392;50.964;6.952;2022-12-20T03:35:16;9.09;117.81
51305;HTU21D;37392;50.964;6.952;2022-12-20T03:37:41;9.15;117.05
51305;HTU21D;37392;50.964;6.952;2022-12-20T03:40:08;9.14;117.55
51305;HTU21D;37392;50.964;6.952;2022-12-20T03:42:35;9.14;117.51
51305;HTU21D;37392;50.964;6.952;2022-12-20T03:45:00;9.11;118.11
51305;HTU21D;37392;50.964;6.952;2022-12-20T03:47:26;9.14;117.71
51305;HTU21D;37392;50.964;6.952;2022-12-20T03:49:52;9.10;118.63
51305;HTU21D;37392;50.964;6.952;2022-12-20T03:52:17;9.06;118.75
51305;HTU21D;37392;50.964;6.952;2022-12-20T03:54:43;9.05;118.57
51305;HTU21D;37392;50.964;6.952;2022-12-20T03:57:09;9.05;118.65
51305;HTU21D;37392;50.964;6.952;2022-12-20T03:59:34;8.98;-5.73
51305;HTU21D;37392;50.964;6.952;2022-12-20T04:02:00;8.94;-5.38
51305;HTU21D;37392;50.964;6.952;2022-12-20T04:04:27;8.95;-5.21
51305;HTU21D;37392;50.964;6.952;2022-12-20T04:06:52;8.94;-4.99
51305;HTU21D;37392;50.964;6.952;2022-12-20T04:09:18;8.88;-4.46
51305;HTU21D;37392;50.964;6.952;2022-12-20T04:11:43;8.87;-4.35
51305;HTU21D;37392;50.964;6.952;2022-12-20T04:14:09;8.85;-3.99
51305;HTU21D;37392;50.964;6.952;2022-12-20T04:16:35;8.82;-3.51
51305;HTU21D;37392;50.964;6.952;2022-12-20T04:19:01;8.80;-3.41
51305;HTU21D;37392;50.964;6.952;2022-12-20T04:21:29;8.78;-2.99
51305;HTU21D;37392;50.964;6.952;2022-12-20T04:23:57;8.78;-2.67
51305;HTU21D;37392;50.964;6.952;2022-12-20T04:26:24;8.80;-2.57
51305;HTU21D;37392;50.964;6.952;2022-12-20T04:28:50;8.78;-2.53
51305;HTU21D;37392;50.964;6.952;2022-12-20T04:31:15;8.86;-2.49
51305;HTU21D;37392;50.964;6.952;2022-12-20T04:33:41;8.78;-2.28
51305;HTU21D;37392;50.964;6.952;2022-12-20T04:36:08;8.81;-2.32
51305;HTU21D;37392;50.964;6.952;2022-12-20T04:38:36;8.79;-2.13
51305;HTU21D;37392;50.964;6.952;2022-12-20T04:41:01;8.78;-2.10
51305;HTU21D;37392;50.964;6.952;2022-12-20T04:43:27;8.78;-2.28
51305;HTU21D;37392;50.964;6.952;2022-12-20T04:45:54;8.77;-2.12
51305;HTU21D;37392;50.964;6.952;2022-12-20T04:48:21;8.74;-2.09
51305;HTU21D;37392;50.964;6.952;2022-12-20T04:50:52;8.74;-1.74
51305;HTU21D;37392;50.964;6.952;2022-12-20T04:53:19;8.75;-1.98
51305;HTU21D;37392;50.964;6.952;2022-12-20T04:56:04;8.73;-2.12
51305;HTU21D;37392;50.964;6.952;2022-12-20T04:58:30;8.71;-2.15
51305;HTU21D;37392;50.964;6.952;2022-12-20T05:00:56;8.70;-2.31
51305;HTU21D;37392;50.964;6.952;2022-12-20T05:03:23;8.74;-2.52
51305;HTU21D;37392;50.964;6.952;2022-12-20T05:05:49;8.73;-2.79
51305;HTU21D;37392;50.964;6.952;2022-12-20T05:08:15;8.74;-2.54
51305;HTU21D;37392;50.964;6.952;2022-12-20T05:10:41;8.74;-2.54
51305;HTU21D;37392;50.964;6.952;2022-12-20T05:13:07;8.74;-2.46
51305;HTU21D;37392;50.964;6.952;2022-12-20T05:15:33;8.78;-2.72
51305;HTU21D;37392;50.964;6.952;2022-12-20T05:17:58;8.78;-3.09
51305;HTU21D;37392;50.964;6.952;2022-12-20T05:20:29;8.79;-2.96
51305;HTU21D;37392;50.964;6.952;2022-12-20T05:22:56;8.83;-3.43
51305;HTU21D;37392;50.964;6.952;2022-12-20T05:25:45;8.83;-3.37
51305;HTU21D;37392;50.964;6.952;2022-12-20T05:28:30;8.87;-3.71
51305;HTU21D;37392;50.964;6.952;2022-12-20T05:30:56;8.87;-3.87
51305;HTU21D;37392;50.964;6.952;2022-12-20T05:33:22;8.89;-4.06
51305;HTU21D;37392;50.964;6.952;2022-12-20T05:35:47;8.89;-4.28
51305;HTU21D;37392;50.964;6.952;2022-12-20T05:38:13;8.88;-4.41
51305;HTU21D;37392;50.964;6.952;2022-12-20T05:40:39;8.88;-4.32
51305;HTU21D;37392;50.964;6.952;2022-12-20T05:43:06;8.93;-4.57
51305;HTU21D;37392;50.964;6.952;2022-12-20T05:45:32;8.96;-4.67
51305;HTU21D;37392;50.964;6.952;2022-12-20T05:47:58;8.94;-5.06
51305;HTU21D;37392;50.964;6.952;2022-12-20T05:50:24;8.94;-4.93
51305;HTU21D;37392;50.964;6.952;2022-12-20T05:52:49;8.93;-4.50
51305;HTU21D;37392;50.964;6.952;2022-12-20T05:55:15;8.94;-4.76
51305;HTU21D;37392;50.964;6.952;2022-12-20T05:57:41;8.97;-5.05
51305;HTU21D;37392;50.964;6.952;2022-12-20T06:00:11;9.08;-5.86
51305;HTU21D;37392;50.964;6.952;2022-12-20T06:02:37;9.06;118.88
51305;HTU21D;37392;50.964;6.952;2022-12-20T06:05:03;9.05;118.87
51305;HTU21D;37392;50.964;6.952;2022-12-20T06:07:29;9.06;118.74
51305;HTU21D;37392;50.964;6.952;2022-12-20T06:09:56;9.07;118.73
51305;HTU21D;37392;50.964;6.952;2022-12-20T06:12:22;9.11;118.24
51305;HTU21D;37392;50.964;6.952;2022-12-20T06:14:48;9.14;117.63
51305;HTU21D;37392;50.964;6.952;2022-12-20T06:17:13;9.14;117.55
51305;HTU21D;37392;50.964;6.952;2022-12-20T06:19:39;9.18;117.12
51305;HTU21D;37392;50.964;6.952;2022-12-20T06:22:08;9.17;116.89
51305;HTU21D;37392;50.964;6.952;2022-12-20T06:24:35;9.16;117.04
51305;HTU21D;37392;50.964;6.952;2022-12-20T06:27:01;9.16;117.44
51305;HTU21D;37392;50.964;6.952;2022-12-20T06:29:28;9.17;117.60
51305;HTU21D;37392;50.964;6.952;2022-12-20T06:31:54;9.17;117.43
51305;HTU21D;37392;50.964;6.952;2022-12-20T06:34:20;9.18;117.63
51305;HTU21D;37392;50.964;6.952;2022-12-20T06:36:46;9.18;117.79
51305;HTU21D;37392;50.964;6.952;2022-12-20T06:39:12;9.19;117.70
51305;HTU21D;37392;50.964;6.952;2022-12-20T06:41:39;9.18;117.58
51305;HTU21D;37392;50.964;6.952;2022-12-20T06:44:05;9.19;117.71
51305;HTU21D;37392;50.964;6.952;2022-12-20T06:46:32;9.24;116.60
51305;HTU21D;37392;50.964;6.952;2022-12-20T06:48:58;9.22;116.60
51305;HTU21D;37392;50.964;6.952;2022-12-20T06:51:23;9.21;116.43
51305;HTU21D;37392;50.964;6.952;2022-12-20T06:53:49;9.23;116.76
51305;HTU21D;37392;50.964;6.952;2022-12-20T06:56:15;9.24;116.18
51305;HTU21D;37392;50.964;6.952;2022-12-20T06:58:40;9.25;116.17
51305;HTU21D;37392;50.964;6.952;2022-12-20T07:01:06;9.21;116.73
51305;HTU21D;37392;50.964;6.952;2022-12-20T07:03:32;9.18;116.15
51305;HTU21D;37392;50.964;6.952;2022-12-20T07:05:57;9.23;115.62
51305;HTU21D;37392;50.964;6.952;2022-12-20T07:08:24;9.24;115.25
51305;HTU21D;37392;50.964;6.952;2022-12-20T07:10:50;9.23;115.34
51305;HTU21D;37392;50.964;6.952;2022-12-20T07:13:20;9.21;115.43
51305;HTU21D;37392;50.964;6.952;2022-12-20T07:15:46;9.17;115.66
51305;HTU21D;37392;50.964;6.952;2022-12-20T07:18:11;9.15;115.64
51305;HTU21D;37392;50.964;6.952;2022-12-20T07:20:37;9.08;116.06
51305;HTU21D;37392;50.964;6.952;2022-12-20T07:23:03;9.04;115.74
51305;HTU21D;37392;50.964;6.952;2022-12-20T07:25:29;9.04;116.00
51305;HTU21D;37392;50.964;6.952;2022-12-20T07:27:55;9.00;116.28
51305;HTU21D;37392;50.964;6.952;2022-12-20T07:30:20;9.03;115.86
51305;HTU21D;37392;50.964;6.952;2022-12-20T07:32:47;9.04;116.02
51305;HTU21D;37392;50.964;6.952;2022-12-20T07:35:14;9.09;115.93
51305;HTU21D;37392;50.964;6.952;2022-12-20T07:37:40;9.11;115.62
51305;HTU21D;37392;50.964;6.952;2022-12-20T07:40:07;9.11;115.82
51305;HTU21D;37392;50.964;6.952;2022-12-20T07:42:34;9.09;116.82
51305;HTU21D;37392;50.964;6.952;2022-12-20T07:44:59;9.09;116.25
51305;HTU21D;37392;50.964;6.952;2022-12-20T07:47:25;9.04;116.97
51305;HTU21D;37392;50.964;6.952;2022-12-20T07:49:50;9.03;117.74
51305;HTU21D;37392;50.964;6.952;2022-12-20T07:52:18;9.03;118.08
51305;HTU21D;37392;50.964;6.952;2022-12-20T07:54:49;9.07;118.13
51305;HTU21D;37392;50.964;6.952;2022-12-20T07:57:29;9.05;118.53
51305;HTU21D;37392;50.964;6.952;2022-12-20T07:59:59;9.10;117.70
51305;HTU21D;37392;50.964;6.952;2022-12-20T08:02:31;9.15;116.85
51305;HTU21D;37392;50.964;6.952;2022-12-20T08:05:02;9.19;116.52
51305;HTU21D;37392;50.964;6.952;2022-12-20T08:07:30;9.22;116.25
51305;HTU21D;37392;50.964;6.952;2022-12-20T08:09:56;9.27;115.71
51305;HTU21D;37392;50.964;6.952;2022-12-20T08:12:22;9.23;116.47
51305;HTU21D;37392;50.964;6.952;2022-12-20T08:14:48;9.25;116.23
51305;HTU21D;37392;50.964;6.952;2022-12-20T08:17:16;9.31;115.73
51305;HTU21D;37392;50.964;6.952;2022-12-20T08:19:42;9.33;116.09
51305;HTU21D;37392;50.964;6.952;2022-12-20T08:22:08;9.35;115.49
51305;HTU21D;37392;50.964;6.952;2022-12-20T08:24:33;9.38;116.41
51305;HTU21D;37392;50.964;6.952;2022-12-20T08:26:59;9.37;116.33
51305;HTU21D;37392;50.964;6.952;2022-12-20T08:29:25;9.40;115.75
51305;HTU21D;37392;50.964;6.952;2022-12-20T08:31:50;9.45;115.35
51305;HTU21D;37392;50.964;6.952;2022-12-20T08:34:16;9.46;115.49
51305;HTU21D;37392;50.964;6.952;2022-12-20T08:36:42;9.47;115.12
51305;HTU21D;37392;50.964;6.952;2022-12-20T08:39:08;9.48;115.25
51305;HTU21D;37392;50.964;6.952;2022-12-20T08:41:36;9.50;115.24
51305;HTU21D;37392;50.964;6.952;2022-12-20T08:44:03;9.51;115.36
51305;HTU21D;37392;50.964;6.952;2022-12-20T08:46:29;9.48;114.93
51305;HTU21D;37392;50.964;6.952;2022-12-20T08:48:55;9.52;115.00
51305;HTU21D;37392;50.964;6.952;2022-12-20T08:51:20;9.51;114.96
51305;HTU21D;37392;50.964;6.952;2022-12-20T08:53:46;9.53;115.07
51305;HTU21D;37392;50.964;6.952;2022-12-20T08:56:16;9.55;114.91
51305;HTU21D;37392;50.964;6.952;2022-12-20T08:58:44;9.53;115.19
51305;HTU21D;37392;50.964;6.952;2022-12-20T09:01:13;9.56;114.52
51305;HTU21D;37392;50.964;6.952;2022-12-20T09:03:43;9.59;114.30
51305;HTU21D;37392;50.964;6.952;2022-12-20T09:06:12;9.57;114.27
51305;HTU21D;37392;50.964;6.952;2022-12-20T09:08:40;9.60;113.74
51305;HTU21D;37392;50.964;6.952;2022-12-20T09:11:11;9.56;113.94
51305;HTU21D;37392;50.964;6.952;2022-12-20T09:13:41;9.57;113.77
51305;HTU21D;37392;50.964;6.952;2022-12-20T09:16:08;9.55;114.05
51305;HTU21D;37392;50.964;6.952;2022-12-20T09:18:35;9.53;114.35
51305;HTU21D;37392;50.964;6.952;2022-12-20T09:21:03;9.51;114.83
51305;HTU21D;37392;50.964;6.952;2022-12-20T09:23:31;9.49;114.51
51305;HTU21D;37392;50.964;6.952;2022-12-20T09:26:02;9.48;115.19
51305;HTU21D;37392;50.964;6.952;2022-12-20T09:28:29;9.50;114.93
51305;HTU21D;37392;50.964;6.952;2022-12-20T09:30:59;9.47;115.16
51305;HTU21D;37392;50.964;6.952;2022-12-20T09:33:27;9.44;115.60
51305;HTU21D;37392;50.964;6.952;2022-12-20T09:35:53;9.46;116.28
51305;HTU21D;37392;50.964;6.952;2022-12-20T09:38:19;9.45;116.83
51305;HTU21D;37392;50.964;6.952;2022-12-20T09:40:46;9.46;116.49
51305;HTU21D;37392;50.964;6.952;2022-12-20T09:43:15;9.50;116.41
51305;HTU21D;37392;50.964;6.952;2022-12-20T09:45:42;9.54;115.96
51305;HTU21D;37392;50.964;6.952;2022-12-20T09:48:19;9.62;115.47
51305;HTU21D;37392;50.964;6.952;2022-12-20T09:56:31;9.77;116.14
51305;HTU21D;37392;50.964;6.952;2022-12-20T09:59:03;9.80;116.68
51305;HTU21D;37392;50.964;6.952;2022-12-20T10:01:33;9.88;115.96
51305;HTU21D;37392;50.964;6.952;2022-12-20T10:04:06;9.92;115.96
51305;HTU21D;37392;50.964;6.952;2022-12-20T10:12:45;9.84;116.96
51305;HTU21D;37392;50.964;6.952;2022-12-20T10:16:07;9.83;116.63
51305;HTU21D;37392;50.964;6.952;2022-12-20T10:19:04;9.82;117.12
51305;HTU21D;37392;50.964;6.952;2022-12-20T10:24:52;9.90;116.92
51305;HTU21D;37392;50.964;6.952;2022-12-20T10:27:24;9.92;116.39
51305;HTU21D;37392;50.964;6.952;2022-12-20T10:29:50;10.04;116.39
51305;HTU21D;37392;50.964;6.952;2022-12-20T10:32:19;10.06;116.09
51305;HTU21D;37392;50.964;6.952;2022-12-20T10:34:59;10.12;115.42
51305;HTU21D;37392;50.964;6.952;2022-12-20T10:37:29;10.12;115.33
51305;HTU21D;37392;50.964;6.952;2022-12-20T10:39:55;10.20;114.69
51305;HTU21D;37392;50.964;6.952;2022-12-20T10:45:26;10.30;114.41
51305;HTU21D;37392;50.964;6.952;2022-12-20T10:47:58;10.40;113.96
51305;HTU21D;37392;50.964;6.952;2022-12-20T10:50:25;10.53;113.26
51305;HTU21D;37392;50.964;6.952;2022-12-20T10:55:44;10.65;113.95
51305;HTU21D;37392;50.964;6.952;2022-12-20T11:01:04;10.66;112.20
51305;HTU21D;37392;50.964;6.952;2022-12-20T11:03:30;10.64;111.97
51305;HTU21D;37392;50.964;6.952;2022-12-20T11:06:02;10.64;112.94
51305;HTU21D;37392;50.964;6.952;2022-12-20T11:08:30;10.65;112.58
51305;HTU21D;37392;50.964;6.952;2022-12-20T11:11:16;10.63;112.90
51305;HTU21D;37392;50.964;6.952;2022-12-20T11:13:44;10.63;112.75
51305;HTU21D;37392;50.964;6.952;2022-12-20T11:16:36;10.62;112.77
51305;HTU21D;37392;50.964;6.952;2022-12-20T11:25:43;10.66;112.55
51305;HTU21D;37392;50.964;6.952;2022-12-20T11:39:53;10.78;111.92
51305;HTU21D;37392;50.964;6.952;2022-12-20T11:45:25;10.85;111.82
51305;HTU21D;37392;50.964;6.952;2022-12-20T11:51:03;10.96;111.13
51305;HTU21D;37392;50.964;6.952;2022-12-20T11:54:11;10.99;110.52
51305;HTU21D;37392;50.964;6.952;2022-12-20T11:56:45;11.01;110.33
51305;HTU21D;37392;50.964;6.952;2022-12-20T11:59:36;10.99;109.81
51305;HTU21D;37392;50.964;6.952;2022-12-20T12:02:13;11.02;110.07
51305;HTU21D;37392;50.964;6.952;2022-12-20T12:04:54;11.04;110.31
51305;HTU21D;37392;50.964;6.952;2022-12-20T12:07:26;11.05;110.11
51305;HTU21D;37392;50.964;6.952;2022-12-20T12:10:01;11.04;110.63
51305;HTU21D;37392;50.964;6.952;2022-12-20T12:12:36;11.07;110.19
51305;HTU21D;37392;50.964;6.952;2022-12-20T12:17:53;11.14;109.42
51305;HTU21D;37392;50.964;6.952;2022-12-20T12:20:39;11.14;109.64
51305;HTU21D;37392;50.964;6.952;2022-12-20T12:26:31;11.09;110.49
51305;HTU21D;37392;50.964;6.952;2022-12-20T12:40:09;10.88;114.19
51305;HTU21D;37392;50.964;6.952;2022-12-20T12:45:20;10.82;113.74
51305;HTU21D;37392;50.964;6.952;2022-12-20T12:47:49;10.82;114.40
51305;HTU21D;37392;50.964;6.952;2022-12-20T12:50:32;10.81;114.86
51305;HTU21D;37392;50.964;6.952;2022-12-20T12:53:12;10.79;114.83
51305;HTU21D;37392;50.964;6.952;2022-12-20T12:55:47;10.79;115.07
51305;HTU21D;37392;50.964;6.952;2022-12-20T13:01:00;10.81;115.26
51305;HTU21D;37392;50.964;6.952;2022-12-20T13:17:52;10.62;117.02
51305;HTU21D;37392;50.964;6.952;2022-12-20T13:20:33;10.59;116.41
51305;HTU21D;37392;50.964;6.952;2022-12-20T13:23:22;10.55;116.99
51305;HTU21D;37392;50.964;6.952;2022-12-20T13:25:49;10.50;117.10
51305;HTU21D;37392;50.964;6.952;2022-12-20T13:30:47;10.42;118.52
51305;HTU21D;37392;50.964;6.952;2022-12-20T13:33:48;10.38;118.44
51305;HTU21D;37392;50.964;6.952;2022-12-20T13:46:44;10.22;-5.94
51305;HTU21D;37392;50.964;6.952;2022-12-20T13:49:25;10.20;-5.44
51305;HTU21D;37392;50.964;6.952;2022-12-20T13:52:29;10.20;-5.63
51305;HTU21D;37392;50.964;6.952;2022-12-20T13:54:59;10.19;-5.76
51305;HTU21D;37392;50.964;6.952;2022-12-20T13:57:30;10.21;118.79
51305;HTU21D;37392;50.964;6.952;2022-12-20T14:00:00;10.23;118.34
51305;HTU21D;37392;50.964;6.952;2022-12-20T14:02:33;10.27;118.03
51305;HTU21D;37392;50.964;6.952;2022-12-20T14:05:31;10.27;118.18
51305;HTU21D;37392;50.964;6.952;2022-12-20T14:08:03;10.30;117.11
51305;HTU21D;37392;50.964;6.952;2022-12-20T14:10:32;10.30;116.95
51305;HTU21D;37392;50.964;6.952;2022-12-20T14:12:59;10.34;116.33
51305;HTU21D;37392;50.964;6.952;2022-12-20T14:15:33;10.40;116.09
51305;HTU21D;37392;50.964;6.952;2022-12-20T14:18:21;10.39;116.05
51305;HTU21D;37392;50.964;6.952;2022-12-20T14:20:58;10.41;116.02
51305;HTU21D;37392;50.964;6.952;2022-12-20T14:26:11;10.37;116.68
51305;HTU21D;37392;50.964;6.952;2022-12-20T14:28:45;10.31;118.18
51305;HTU21D;37392;50.964;6.952;2022-12-20T14:31:36;10.29;118.73
51305;HTU21D;37392;50.964;6.952;2022-12-20T14:36:45;10.23;118.97
51305;HTU21D;37392;50.964;6.952;2022-12-20T14:39:31;10.20;-5.87
51305;HTU21D;37392;50.964;6.952;2022-12-20T14:44:33;10.18;-4.44
51305;HTU21D;37392;50.964;6.952;2022-12-20T14:47:03;10.18;-4.90
51305;HTU21D;37392;50.964;6.952;2022-12-20T14:49:37;10.13;-4.65
51305;HTU21D;37392;50.964;6.952;2022-12-20T14:57:26;10.12;-4.18
51305;HTU21D;37392;50.964;6.952;2022-12-20T15:08:12;10.22;-5.24
51305;HTU21D;37392;50.964;6.952;2022-12-20T15:11:00;10.23;-5.36
51305;HTU21D;37392;50.964;6.952;2022-12-20T15:13:42;10.26;-5.23
51305;HTU21D;37392;50.964;6.952;2022-12-20T15:18:48;10.27;-5.72
51305;HTU21D;37392;50.964;6.952;2022-12-20T15:24:03;10.26;-5.95
51305;HTU21D;37392;50.964;6.952;2022-12-20T15:26:33;10.27;-5.45
51305;HTU21D;37392;50.964;6.952;2022-12-20T15:28:59;10.29;118.85
51305;HTU21D;37392;50.964;6.952;2022-12-20T15:31:27;10.25;-5.82
51305;HTU21D;37392;50.964;6.952;2022-12-20T15:33:53;10.28;118.79
51305;HTU21D;37392;50.964;6.952;2022-12-20T15:36:27;10.31;118.23
51305;HTU21D;37392;50.964;6.952;2022-12-20T15:38:57;10.29;118.22
51305;HTU21D;37392;50.964;6.952;2022-12-20T15:41:29;10.36;117.15
51305;HTU21D;37392;50.964;6.952;2022-12-20T15:44:02;10.33;117.12
51305;HTU21D;37392;50.964;6.952;2022-12-20T15:46:30;10.33;117.46
51305;HTU21D;37392;50.964;6.952;2022-12-20T15:48:56;10.29;117.73
51305;HTU21D;37392;50.964;6.952;2022-12-20T15:51:33;10.30;117.57
51305;HTU21D;37392;50.964;6.952;2022-12-20T15:54:02;10.30;117.86
51305;HTU21D;37392;50.964;6.952;2022-12-20T15:56:29;10.30;117.95
51305;HTU21D;37392;50.964;6.952;2022-12-20T15:58:55;10.28;118.40
51305;HTU21D;37392;50.964;6.952;2022-12-20T16:01:30;10.23;118.92
51305;HTU21D;37392;50.964;6.952;2022-12-20T16:04:00;10.22;-5.64
51305;HTU21D;37392;50.964;6.952;2022-12-20T16:06:26;10.23;-5.76
51305;HTU21D;37392;50.964;6.952;2022-12-20T16:08:52;10.23;-5.57
51305;HTU21D;37392;50.964;6.952;2022-12-20T16:11:21;10.20;-5.84
51305;HTU21D;37392;50.964;6.952;2022-12-20T16:13:49;10.16;-5.63
51305;HTU21D;37392;50.964;6.952;2022-12-20T16:16:30;10.20;-5.89
51305;HTU21D;37392;50.964;6.952;2022-12-20T16:18:57;10.18;-5.23
51305;HTU21D;37392;50.964;6.952;2022-12-20T16:21:27;10.24;118.22
51305;HTU21D;37392;50.964;6.952;2022-12-20T16:23:56;10.21;118.42
51305;HTU21D;37392;50.964;6.952;2022-12-20T16:26:24;10.23;118.89
51305;HTU21D;37392;50.964;6.952;2022-12-20T16:28:51;10.22;-5.94
51305;HTU21D;37392;50.964;6.952;2022-12-20T16:31:24;10.21;-5.62
51305;HTU21D;37392;50.964;6.952;2022-12-20T16:33:53;10.26;118.61
51305;HTU21D;37392;50.964;6.952;2022-12-20T16:36:20;10.27;118.20
51305;HTU21D;37392;50.964;6.952;2022-12-20T16:38:47;10.24;118.72
51305;HTU21D;37392;50.964;6.952;2022-12-20T16:41:21;10.25;118.57
51305;HTU21D;37392;50.964;6.952;2022-12-20T16:43:49;10.23;118.83
51305;HTU21D;37392;50.964;6.952;2022-12-20T16:46:17;10.25;118.46
51305;HTU21D;37392;50.964;6.952;2022-12-20T16:48:44;10.36;117.19
51305;HTU21D;37392;50.964;6.952;2022-12-20T16:51:24;10.39;116.43
51305;HTU21D;37392;50.964;6.952;2022-12-20T16:53:56;10.38;116.43
51305;HTU21D;37392;50.964;6.952;2022-12-20T16:56:26;10.43;116.50
51305;HTU21D;37392;50.964;6.952;2022-12-20T16:58:52;10.49;116.46
51305;HTU21D;37392;50.964;6.952;2022-12-20T17:01:23;10.48;117.04
51305;HTU21D;37392;50.964;6.952;2022-12-20T17:03:52;10.53;116.46
51305;HTU21D;37392;50.964;6.952;2022-12-20T17:06:19;10.50;116.92
51305;HTU21D;37392;50.964;6.952;2022-12-20T17:08:45;10.60;115.92
51305;HTU21D;37392;50.964;6.952;2022-12-20T17:11:22;10.64;115.98
51305;HTU21D;37392;50.964;6.952;2022-12-20T17:13:51;10.69;115.63
51305;HTU21D;37392;50.964;6.952;2022-12-20T17:16:18;10.72;116.06
51305;HTU21D;37392;50.964;6.952;2022-12-20T17:18:46;10.70;116.25
51305;HTU21D;37392;50.964;6.952;2022-12-20T17:21:37;10.74;116.07
51305;HTU21D;37392;50.964;6.952;2022-12-20T17:24:04;10.74;116.09
51305;HTU21D;37392;50.964;6.952;2022-12-20T17:26:31;10.79;115.89
51305;HTU21D;37392;50.964;6.952;2022-12-20T17:28:57;10.79;116.04
51305;HTU21D;37392;50.964;6.952;2022-12-20T17:31:28;10.74;116.40
51305;HTU21D;37392;50.964;6.952;2022-12-20T17:34:05;10.75;116.45
51305;HTU21D;37392;50.964;6.952;2022-12-20T17:36:31;10.73;116.92
51305;HTU21D;37392;50.964;6.952;2022-12-20T17:38:57;10.75;117.22
51305;HTU21D;37392;50.964;6.952;2022-12-20T17:41:30;10.66;118.31
51305;HTU21D;37392;50.964;6.952;2022-12-20T17:43:58;10.58;-5.85
51305;HTU21D;37392;50.964;6.952;2022-12-20T17:46:25;10.52;118.94